Time;durP1;ratioP1;P1;durP2;ratioP2;P2;SDS_P1;SDS_P2;PMS_P1;PMS_P2;Temp;Humidity;BMP_temperature;BMP_pressure;BME280_temperature;BME280_humidity;BME280_pressure;Samples;Min_cycle;Max_cycle;Signal;HPM_P1;HPM_P2
2021/06/04 00:01:43;;;;;;;1.50;0.80;;;;;;;22.56;41.95;101863.25;4991016;28;20038;-63
2021/06/04 00:04:09;;;;;;;2.30;1.08;;;;;;;22.57;41.97;101869.44;4987476;28;20034;-66
2021/06/04 00:06:36;;;;;;;2.22;0.80;;;;;;;22.56;41.89;101865.91;4991346;28;20043;-64
2021/06/04 00:09:08;;;;;;;3.22;1.00;;;;;;;22.56;42.30;101873.94;4991565;28;20034;-63
2021/06/04 00:11:47;;;;;;;1.42;0.68;;;;;;;22.56;42.98;101871.25;4989584;28;20058;-64
2021/06/04 00:14:22;;;;;;;2.70;0.70;;;;;;;22.58;42.97;101869.25;4987872;28;20047;-63
2021/06/04 00:16:58;;;;;;;3.00;0.80;;;;;;;22.59;43.51;101859.38;4962876;28;20360;-64
2021/06/04 00:19:28;;;;;;;2.28;0.73;;;;;;;22.60;43.36;101861.88;4989567;28;20109;-64
2021/06/04 00:21:58;;;;;;;3.72;0.90;;;;;;;22.61;43.33;101862.69;4987959;28;20034;-64
2021/06/04 00:24:24;;;;;;;5.82;1.10;;;;;;;22.62;43.42;101867.84;4973370;28;20695;-64
2021/06/04 00:26:51;;;;;;;2.33;0.77;;;;;;;22.61;43.78;101866.19;4971082;28;20045;-64
2021/06/04 00:29:17;;;;;;;2.17;0.82;;;;;;;22.61;43.58;101863.53;4987797;28;20429;-64
2021/06/04 00:31:45;;;;;;;3.78;0.80;;;;;;;22.63;43.63;101877.53;4988682;28;20038;-64
2021/06/04 00:34:12;;;;;;;4.82;0.80;;;;;;;22.64;43.34;101867.66;4990716;28;20038;-64
2021/06/04 00:36:38;;;;;;;3.47;0.90;;;;;;;22.63;43.40;101866.81;4988671;28;20141;-65
2021/06/04 00:39:06;;;;;;;2.20;0.73;;;;;;;22.64;42.92;101862.31;4963355;28;20126;-64
2021/06/04 00:41:37;;;;;;;4.20;0.85;;;;;;;22.63;42.68;101866.00;4989064;28;20121;-64
2021/06/04 00:44:03;;;;;;;1.98;0.80;;;;;;;22.64;43.21;101864.97;4978133;28;20053;-64
2021/06/04 00:46:28;;;;;;;2.08;0.80;;;;;;;22.64;43.28;101863.13;4974563;28;20046;-65
2021/06/04 00:48:55;;;;;;;3.35;0.70;;;;;;;22.64;43.03;101860.44;4973485;28;20049;-64
2021/06/04 00:51:37;;;;;;;3.25;0.90;;;;;;;22.61;42.93;101857.34;4990526;28;20038;-64
2021/06/04 00:54:05;;;;;;;3.60;1.00;;;;;;;22.64;43.09;101849.75;4988633;28;20446;-64
2021/06/04 00:56:32;;;;;;;2.45;0.80;;;;;;;22.64;43.31;101857.78;4972084;28;20446;-64
2021/06/04 00:58:58;;;;;;;4.05;1.55;;;;;;;22.64;43.25;101862.31;4972224;28;20038;-64
2021/06/04 01:01:29;;;;;;;3.58;0.93;;;;;;;22.63;42.97;101864.16;4971224;28;20038;-65
2021/06/04 01:03:59;;;;;;;2.53;0.70;;;;;;;22.63;43.10;101864.16;4989712;28;20118;-64
2021/06/04 01:06:50;;;;;;;3.95;1.20;;;;;;;22.60;43.26;101867.22;4970841;28;20026;-64
2021/06/04 01:09:41;;;;;;;3.33;0.80;;;;;;;22.60;43.12;101872.56;4970933;28;20026;-64
2021/06/04 01:12:52;;;;;;;3.20;0.80;;;;;;;22.59;43.34;101865.56;4981655;28;20041;-64
2021/06/04 01:15:34;;;;;;;2.30;0.85;;;;;;;22.61;42.78;101862.69;4983767;28;20033;-64
2021/06/04 01:18:09;;;;;;;3.50;1.00;;;;;;;22.61;42.83;101866.19;4979197;28;20027;-64
2021/06/04 01:20:48;;;;;;;2.38;0.77;;;;;;;22.62;42.71;101867.03;4989639;28;20116;-64
2021/06/04 01:23:45;;;;;;;2.08;0.70;;;;;;;22.59;42.70;101873.59;4964163;28;20146;-64
2021/06/04 01:26:20;;;;;;;3.40;1.10;;;;;;;22.60;42.54;101867.22;4987944;28;20097;-64
2021/06/04 01:28:50;;;;;;;1.98;0.80;;;;;;;22.62;42.38;101867.84;4989142;28;20034;-64
2021/06/04 01:31:27;;;;;;;2.95;0.70;;;;;;;22.60;42.49;101872.56;4988395;28;20034;-64
2021/06/04 01:34:10;;;;;;;0.98;0.60;;;;;;;22.59;42.67;101870.09;4988242;28;20045;-64
2021/06/04 01:36:43;;;;;;;2.33;0.93;;;;;;;22.59;42.52;101865.56;4986811;28;20125;-64
2021/06/04 01:39:18;;;;;;;2.10;0.70;;;;;;;22.58;42.10;101868.44;4979720;28;20040;-64
2021/06/04 01:41:47;;;;;;;3.17;0.77;;;;;;;22.58;42.07;101861.22;4988178;28;20057;-64
2021/06/04 01:44:27;;;;;;;2.20;0.80;;;;;;;22.55;42.25;101858.91;4987957;28;20043;-64
2021/06/04 01:46:59;;;;;;;3.58;0.70;;;;;;;22.55;42.30;101856.25;4987988;28;20096;-64
2021/06/04 01:49:28;;;;;;;2.78;0.70;;;;;;;22.55;41.82;101860.75;4988309;28;20049;-64
2021/06/04 01:51:58;;;;;;;1.85;0.60;;;;;;;22.55;42.11;101863.44;4988803;28;20505;-64
2021/06/04 01:54:30;;;;;;;2.97;0.70;;;;;;;22.53;42.17;101860.94;4987417;28;20034;-65
2021/06/04 01:57:00;;;;;;;3.65;0.70;;;;;;;22.53;41.66;101858.28;4986603;28;20041;-64
2021/06/04 01:59:36;;;;;;;1.30;0.70;;;;;;;22.52;41.69;101869.16;4988703;28;20445;-64
2021/06/04 02:02:04;;;;;;;1.98;0.70;;;;;;;22.54;41.77;101859.09;4969679;28;20119;-64
2021/06/04 02:04:35;;;;;;;3.55;0.98;;;;;;;22.53;41.89;101862.81;4988351;28;20065;-64
2021/06/04 02:07:02;;;;;;;2.67;0.80;;;;;;;22.54;41.58;101867.13;4987063;28;20027;-64
2021/06/04 02:09:28;;;;;;;2.08;0.80;;;;;;;22.54;41.82;101862.59;4985979;28;20113;-64
2021/06/04 02:11:56;;;;;;;2.35;0.60;;;;;;;22.54;41.43;101869.81;4989131;28;20053;-64
2021/06/04 02:14:29;;;;;;;1.88;0.73;;;;;;;22.51;41.92;101873.69;4971908;28;20030;-64
2021/06/04 02:17:14;;;;;;;3.28;1.13;;;;;;;22.52;41.63;101875.34;4988583;28;20030;-64
2021/06/04 02:19:58;;;;;;;2.28;0.75;;;;;;;22.54;41.62;101872.47;5011233;22;20062;-67
2021/06/04 02:22:57;;;;;;;2.13;0.70;;;;;;;22.50;41.82;101871.22;5002380;28;20103;-68
2021/06/04 02:25:51;;;;;;;3.25;0.80;;;;;;;22.50;41.97;101869.38;4989239;28;20084;-67
2021/06/04 02:28:35;;;;;;;2.40;0.88;;;;;;;22.54;42.21;101870.63;5005732;28;20029;-67
2021/06/04 02:31:04;;;;;;;2.05;0.70;;;;;;;22.53;42.04;101865.47;5006421;28;20048;-67
2021/06/04 02:33:36;;;;;;;3.38;0.82;;;;;;;22.54;42.12;101867.97;5006336;28;20046;-67
2021/06/04 02:36:20;;;;;;;2.50;0.90;;;;;;;22.53;41.97;101866.31;5006291;28;20052;-67
2021/06/04 02:38:52;;;;;;;2.47;0.80;;;;;;;22.55;42.00;101866.09;5006847;28;20030;-67
2021/06/04 02:41:31;;;;;;;1.83;0.77;;;;;;;22.54;42.18;101865.28;5005935;28;20745;-67
2021/06/04 02:44:08;;;;;;;1.63;0.73;;;;;;;22.55;42.12;101868.78;5000324;28;20037;-67
2021/06/04 02:46:38;;;;;;;3.65;0.60;;;;;;;22.56;42.22;101868.59;5007867;28;20072;-67
2021/06/04 02:49:06;;;;;;;2.80;0.90;;;;;;;22.56;42.39;101871.25;5006732;28;20069;-67
2021/06/04 02:51:48;;;;;;;1.05;0.63;;;;;;;22.55;42.41;101869.59;4989744;28;20042;-67
2021/06/04 02:54:18;;;;;;;1.60;0.80;;;;;;;22.57;42.24;101875.63;4985279;28;20319;-67
2021/06/04 02:56:48;;;;;;;2.88;0.77;;;;;;;22.57;42.36;101880.16;5007058;28;20032;-67
2021/06/04 02:59:21;;;;;;;2.00;0.77;;;;;;;22.57;42.33;101872.13;5006210;28;20161;-67
2021/06/04 03:01:57;;;;;;;1.70;0.85;;;;;;;22.56;42.17;101879.28;5007781;28;20135;-67
2021/06/04 03:04:25;;;;;;;2.28;0.70;;;;;;;22.58;42.66;101874.59;5006447;28;20026;-67
2021/06/04 03:06:55;;;;;;;2.28;0.77;;;;;;;22.58;42.52;101873.78;4996319;28;20084;-67
2021/06/04 03:09:28;;;;;;;2.08;0.68;;;;;;;22.58;42.29;101873.78;4972392;28;20042;-68
2021/06/04 03:12:00;;;;;;;2.13;0.95;;;;;;;22.57;42.27;101872.94;5005817;28;20038;-67
2021/06/04 03:14:26;;;;;;;2.67;0.65;;;;;;;22.59;42.29;101875.44;4987382;28;20035;-67
2021/06/04 03:16:52;;;;;;;2.03;0.90;;;;;;;22.59;42.28;101870.09;4955163;28;20030;-67
2021/06/04 03:19:19;;;;;;;2.10;0.90;;;;;;;22.59;42.38;101864.72;4987457;28;20045;-67
2021/06/04 03:21:59;;;;;;;1.52;0.60;;;;;;;22.56;42.50;101879.28;4996451;28;20042;-67
2021/06/04 03:24:29;;;;;;;2.75;0.93;;;;;;;22.59;42.73;101870.09;4995013;28;20038;-67
2021/06/04 03:26:59;;;;;;;1.80;0.60;;;;;;;22.59;42.38;101870.91;4991470;28;20030;-67
2021/06/04 03:29:25;;;;;;;1.83;0.60;;;;;;;22.60;42.60;101869.88;5005564;28;20044;-67
2021/06/04 03:31:54;;;;;;;1.88;0.68;;;;;;;22.59;42.57;101868.22;5010432;28;20038;-67
2021/06/04 03:34:21;;;;;;;2.55;0.90;;;;;;;22.59;42.80;101860.22;4995706;28;20074;-67
2021/06/04 03:36:49;;;;;;;2.10;0.65;;;;;;;22.59;42.59;101862.88;4993161;28;20101;-67
2021/06/04 03:39:22;;;;;;;2.05;0.70;;;;;;;22.58;42.75;101863.91;4978415;28;20137;-67
2021/06/04 03:41:50;;;;;;;2.13;0.80;;;;;;;22.58;42.59;101863.91;5001576;28;20066;-67
2021/06/04 03:44:21;;;;;;;1.30;0.60;;;;;;;22.60;42.73;101866.38;4994828;28;20101;-67
2021/06/04 03:46:47;;;;;;;1.70;0.70;;;;;;;22.59;42.98;101876.25;4997727;28;20038;-68
2021/06/04 03:49:14;;;;;;;2.33;0.65;;;;;;;22.60;43.12;101871.72;4986036;28;20504;-67
2021/06/04 03:51:42;;;;;;;2.17;0.70;;;;;;;22.60;43.01;101872.56;4980887;28;20129;-67
2021/06/04 03:54:11;;;;;;;1.75;0.70;;;;;;;22.60;43.29;101867.22;4990693;28;20026;-67
2021/06/04 03:56:39;;;;;;;2.40;0.75;;;;;;;22.59;42.99;101868.22;5009382;28;20107;-67
2021/06/04 03:59:06;;;;;;;3.08;0.90;;;;;;;22.60;43.01;101861.88;5007884;28;20038;-67
2021/06/04 04:01:56;;;;;;;1.75;0.90;;;;;;;22.59;43.18;101868.22;4999382;28;20034;-67
2021/06/04 04:04:22;;;;;;;2.20;0.70;;;;;;;22.60;43.34;101869.06;4994278;28;20163;-67
2021/06/04 04:06:48;;;;;;;2.08;0.70;;;;;;;22.59;43.22;101865.56;4991940;28;20275;-69
2021/06/04 04:09:14;;;;;;;2.30;1.02;;;;;;;22.60;43.06;101875.22;4991026;28;20038;-67
2021/06/04 04:11:42;;;;;;;2.15;0.57;;;;;;;22.60;43.20;101883.25;4991222;28;20041;-67
2021/06/04 04:14:08;;;;;;;1.70;1.00;;;;;;;22.60;43.24;101877.91;5003705;28;20033;-67
2021/06/04 04:16:34;;;;;;;3.80;1.00;;;;;;;22.60;43.17;101871.72;4989286;28;20042;-68
2021/06/04 04:18:59;;;;;;;1.70;0.73;;;;;;;22.60;43.36;101875.22;5009729;28;20045;-68
2021/06/04 04:21:25;;;;;;;4.70;1.02;;;;;;;22.61;43.55;101876.06;4975198;28;20095;-67
2021/06/04 04:23:55;;;;;;;2.17;0.80;;;;;;;22.61;43.32;101876.06;5008278;28;20092;-68
2021/06/04 04:26:24;;;;;;;1.55;0.57;;;;;;;22.60;43.13;101888.59;4989910;28;20161;-68
2021/06/04 04:28:50;;;;;;;2.55;0.85;;;;;;;22.60;43.31;101880.59;4991847;28;20045;-67
2021/06/04 04:31:19;;;;;;;1.80;0.70;;;;;;;22.60;43.31;101880.59;4985562;28;20034;-68
2021/06/04 04:33:45;;;;;;;1.83;0.82;;;;;;;22.60;43.54;101883.25;5006931;28;20026;-68
2021/06/04 04:36:12;;;;;;;1.60;0.70;;;;;;;22.60;43.43;101887.78;5008874;28;20040;-68
2021/06/04 04:38:38;;;;;;;1.90;0.88;;;;;;;22.60;43.28;101885.94;5007403;28;20168;-67
2021/06/04 04:41:04;;;;;;;1.80;0.60;;;;;;;22.61;43.20;101884.09;4985151;28;20450;-68
2021/06/04 04:43:36;;;;;;;1.73;0.60;;;;;;;22.60;43.56;101885.94;4978300;28;20085;-68
2021/06/04 04:46:05;;;;;;;2.00;0.80;;;;;;;22.60;43.32;101885.94;4999726;28;20058;-67
2021/06/04 04:48:31;;;;;;;1.25;0.60;;;;;;;22.60;43.63;101877.91;5014516;28;20125;-68
2021/06/04 04:50:57;;;;;;;1.98;0.70;;;;;;;22.61;43.46;101878.75;4978113;28;20040;-69
2021/06/04 04:53:23;;;;;;;2.63;0.70;;;;;;;22.60;43.63;101880.59;4988254;28;20038;-68
2021/06/04 04:55:49;;;;;;;1.55;0.70;;;;;;;22.60;43.79;101887.78;4997048;28;20041;-67
2021/06/04 04:58:15;;;;;;;2.05;0.63;;;;;;;22.61;43.87;101892.94;5000310;28;20037;-68
2021/06/04 05:00:42;;;;;;;1.67;0.80;;;;;;;22.61;43.62;101892.09;4974668;28;20436;-67
2021/06/04 05:03:10;;;;;;;2.03;0.73;;;;;;;22.61;43.62;101892.09;4997575;28;20046;-68
2021/06/04 05:05:36;;;;;;;1.65;0.70;;;;;;;22.61;43.21;101892.09;4956914;28;20042;-68
2021/06/04 05:08:03;;;;;;;1.75;0.70;;;;;;;22.61;43.67;101902.81;4988131;28;20073;-67
2021/06/04 05:10:28;;;;;;;1.25;0.60;;;;;;;22.60;43.31;101896.63;4993711;28;20038;-68
2021/06/04 05:12:54;;;;;;;1.35;0.70;;;;;;;22.60;43.43;101899.31;4995385;28;20124;-68
2021/06/04 05:15:23;;;;;;;2.17;0.88;;;;;;;22.60;43.54;101893.97;4995435;28;20073;-68
2021/06/04 05:17:49;;;;;;;1.35;0.75;;;;;;;22.59;43.33;101897.66;4995713;28;20030;-67
2021/06/04 05:20:16;;;;;;;1.35;0.70;;;;;;;22.60;43.46;101895.81;4996736;28;20062;-68
2021/06/04 05:22:42;;;;;;;2.13;0.80;;;;;;;22.59;43.17;101897.66;5007263;28;20038;-68
2021/06/04 05:25:11;;;;;;;2.20;0.80;;;;;;;22.59;43.17;101900.31;5009016;28;20088;-68
2021/06/04 05:27:37;;;;;;;1.88;0.75;;;;;;;22.59;43.44;101905.69;5007364;28;20458;-68
2021/06/04 05:30:13;;;;;;;2.25;0.77;;;;;;;22.59;43.17;101910.19;5008810;28;20026;-67
2021/06/04 05:32:39;;;;;;;2.05;0.70;;;;;;;22.60;43.16;101909.19;4988517;28;20100;-68
2021/06/04 05:35:06;;;;;;;3.50;1.02;;;;;;;22.59;43.38;101915.53;4990049;28;20037;-68
2021/06/04 05:37:32;;;;;;;1.05;0.70;;;;;;;22.59;43.17;101918.22;4989268;28;20461;-67
2021/06/04 05:39:57;;;;;;;1.75;0.80;;;;;;;22.59;43.29;101923.56;4991572;28;20035;-67
2021/06/04 05:42:23;;;;;;;2.10;0.90;;;;;;;22.59;43.33;101931.59;4999398;28;20096;-68
2021/06/04 05:44:50;;;;;;;3.00;0.75;;;;;;;22.59;43.11;101924.41;5001914;28;20823;-67
2021/06/04 05:47:16;;;;;;;2.10;0.52;;;;;;;22.58;43.10;101925.41;5002706;28;20145;-67
2021/06/04 05:49:42;;;;;;;1.52;0.68;;;;;;;22.58;43.15;101925.41;5001993;28;20034;-68
2021/06/04 05:52:10;;;;;;;1.58;0.60;;;;;;;22.58;42.90;101929.94;4985323;28;20092;-68
2021/06/04 05:54:42;;;;;;;1.73;0.68;;;;;;;22.57;42.58;101930.97;5009057;28;20414;-68
2021/06/04 05:57:09;;;;;;;2.40;0.70;;;;;;;22.58;43.13;101932.59;5002805;28;20128;-67
2021/06/04 05:59:34;;;;;;;1.02;0.60;;;;;;;22.58;42.89;101937.97;4989261;28;20038;-68
2021/06/04 06:02:00;;;;;;;2.10;0.90;;;;;;;22.58;42.59;101937.97;4999588;28;20037;-68
2021/06/04 06:04:26;;;;;;;1.88;0.80;;;;;;;22.56;42.61;101940.78;4988620;28;20043;-68
2021/06/04 06:06:53;;;;;;;1.45;0.73;;;;;;;22.58;42.67;101948.66;4987893;28;20046;-67
2021/06/04 06:09:20;;;;;;;1.98;0.80;;;;;;;22.57;42.90;101950.50;4989057;28;20031;-68
2021/06/04 06:11:46;;;;;;;1.52;0.70;;;;;;;22.58;42.56;101954.00;5001528;28;20038;-68
2021/06/04 06:14:11;;;;;;;1.92;0.75;;;;;;;22.57;42.60;101950.50;4989388;28;20033;-68
2021/06/04 06:16:38;;;;;;;2.35;0.80;;;;;;;22.56;42.74;101948.81;4998678;28;20532;-68
2021/06/04 06:19:06;;;;;;;2.15;0.90;;;;;;;22.56;42.53;101945.31;5004604;28;20061;-68
2021/06/04 06:21:32;;;;;;;1.40;0.63;;;;;;;22.56;42.42;101943.47;4998720;28;20163;-67
2021/06/04 06:23:57;;;;;;;2.17;0.80;;;;;;;22.56;42.40;101946.16;5005283;28;20034;-68
2021/06/04 06:26:28;;;;;;;2.40;0.80;;;;;;;22.56;42.54;101942.63;5005189;28;20053;-69
2021/06/04 06:28:54;;;;;;;1.52;0.70;;;;;;;22.56;42.31;101948.81;5006780;28;20068;-69
2021/06/04 06:31:24;;;;;;;1.75;0.70;;;;;;;22.56;42.41;101954.16;4989326;28;20129;-68
2021/06/04 06:33:52;;;;;;;1.77;0.75;;;;;;;22.56;42.18;101956.00;5007205;28;20116;-68
2021/06/04 06:36:20;;;;;;;1.95;0.95;;;;;;;22.56;42.65;101956.00;4974455;28;20389;-68
2021/06/04 06:38:48;;;;;;;1.27;0.60;;;;;;;22.55;42.43;101955.19;5006036;28;20048;-68
2021/06/04 06:41:15;;;;;;;1.75;0.85;;;;;;;22.55;42.26;101967.72;5004378;28;20030;-68
2021/06/04 06:43:46;;;;;;;1.98;0.73;;;;;;;22.55;42.38;101962.38;4993088;28;20042;-67
2021/06/04 06:46:15;;;;;;;1.38;0.65;;;;;;;22.54;42.46;101972.25;4995864;28;20034;-68
2021/06/04 06:48:41;;;;;;;0.70;0.60;;;;;;;22.55;42.49;101965.88;5005510;28;20580;-68
2021/06/04 06:51:09;;;;;;;1.00;0.60;;;;;;;22.54;42.16;101958.88;5002364;28;20049;-67
2021/06/04 06:53:36;;;;;;;2.90;0.88;;;;;;;22.55;42.23;101959.72;4988577;28;20374;-68
2021/06/04 06:56:01;;;;;;;3.38;0.68;;;;;;;22.54;42.42;101966.06;5008816;28;20080;-68
2021/06/04 06:58:27;;;;;;;3.03;0.90;;;;;;;22.53;42.44;101967.09;4996909;28;20038;-67
2021/06/04 07:00:54;;;;;;;1.77;0.90;;;;;;;22.54;42.38;101966.06;5010496;28;20042;-68
2021/06/04 07:03:26;;;;;;;1.65;0.60;;;;;;;22.52;41.85;101965.44;4988947;28;20046;-69
2021/06/04 07:05:53;;;;;;;4.45;0.70;;;;;;;22.52;41.22;101968.13;5006944;28;20045;-68
2021/06/04 07:08:18;;;;;;;3.20;0.82;;;;;;;22.49;41.21;101974.66;5004947;28;20040;-71
2021/06/04 07:10:44;;;;;;;3.28;0.90;;;;;;;22.45;40.48;101975.25;4994609;28;20042;-68
2021/06/04 07:13:12;;;;;;;2.40;0.50;;;;;;;22.40;40.36;101979.28;5001528;28;20088;-68
2021/06/04 07:15:39;;;;;;;4.60;0.93;;;;;;;22.35;39.81;101973.69;4994449;28;20173;-67
2021/06/04 07:18:05;;;;;;;5.45;0.73;;;;;;;22.31;39.71;101983.09;5003507;28;20038;-67
2021/06/04 07:20:34;;;;;;;3.53;0.80;;;;;;;22.29;39.30;101986.97;4998391;28;20434;-67
2021/06/04 07:23:01;;;;;;;3.28;0.90;;;;;;;22.27;39.09;101991.69;5008949;28;20037;-67
2021/06/04 07:25:29;;;;;;;2.30;0.80;;;;;;;22.24;39.32;101987.50;4985560;28;20038;-67
2021/06/04 07:27:55;;;;;;;2.08;0.60;;;;;;;22.22;39.13;101989.53;5006069;28;20030;-67
2021/06/04 07:30:24;;;;;;;3.85;0.73;;;;;;;22.21;39.08;102000.41;5003569;28;20447;-67
2021/06/04 07:32:50;;;;;;;2.67;0.73;;;;;;;22.19;39.16;102007.81;5007269;28;20038;-67
2021/06/04 07:35:19;;;;;;;2.80;0.90;;;;;;;22.16;38.92;102006.34;4977133;28;20489;-67
2021/06/04 07:37:44;;;;;;;3.05;0.75;;;;;;;22.17;39.22;102012.50;5010208;28;20076;-68
2021/06/04 07:40:15;;;;;;;5.72;0.85;;;;;;;22.14;39.25;102005.69;4998870;28;20061;-68
2021/06/04 07:42:40;;;;;;;4.32;0.80;;;;;;;22.13;39.32;102013.91;4995386;28;20520;-69
2021/06/04 07:45:08;;;;;;;4.25;0.80;;;;;;;22.11;39.34;102012.25;5007413;28;20034;-67
2021/06/04 07:47:35;;;;;;;4.80;0.70;;;;;;;22.13;39.27;102011.22;4983951;28;20133;-67
2021/06/04 07:50:00;;;;;;;2.22;0.70;;;;;;;22.11;39.41;102017.59;4992731;28;20129;-67
2021/06/04 07:52:26;;;;;;;6.75;1.00;;;;;;;22.10;39.48;102007.91;4982084;28;20121;-68
2021/06/04 07:54:52;;;;;;;3.92;1.20;;;;;;;22.10;39.79;102007.09;4992280;28;20045;-67
2021/06/04 07:57:18;;;;;;;11.05;2.75;;;;;;;22.09;39.87;102016.94;5005533;28;20037;-68
2021/06/04 07:59:43;;;;;;;10.65;2.50;;;;;;;22.06;39.65;102006.59;4993266;28;20350;-67
2021/06/04 08:02:09;;;;;;;6.80;2.47;;;;;;;22.05;39.76;102007.63;5007802;28;20033;-67
2021/06/04 08:04:36;;;;;;;11.90;2.33;;;;;;;22.04;39.76;102007.75;5004604;28;20117;-68
2021/06/04 08:07:02;;;;;;;10.38;2.58;;;;;;;22.01;39.48;102005.47;5007762;28;20029;-67
2021/06/04 08:09:27;;;;;;;11.95;2.92;;;;;;;21.99;39.79;102000.31;5003908;28;20037;-68
2021/06/04 08:12:00;;;;;;;10.57;2.75;;;;;;;21.98;39.67;102008.50;4987641;28;20027;-68
2021/06/04 08:14:26;;;;;;;9.43;2.35;;;;;;;21.97;39.31;102007.69;5000631;28;20037;-67
2021/06/04 08:16:54;;;;;;;7.90;2.13;;;;;;;21.96;39.54;102008.69;5008242;28;20108;-68
2021/06/04 08:19:21;;;;;;;7.03;1.80;;;;;;;21.95;39.71;102009.72;5008438;28;20119;-67
2021/06/04 08:21:50;;;;;;;13.55;2.20;;;;;;;21.93;39.43;102010.88;4985120;28;20065;-68
2021/06/04 08:24:20;;;;;;;5.13;1.50;;;;;;;21.93;39.48;102006.38;5007452;28;20030;-67
2021/06/04 08:26:47;;;;;;;6.20;1.70;;;;;;;21.95;39.40;102007.03;5009569;28;20030;-67
2021/06/04 08:29:13;;;;;;;9.05;2.00;;;;;;;21.94;39.10;102000.03;5005903;28;20034;-68
2021/06/04 08:31:40;;;;;;;4.57;1.30;;;;;;;21.94;39.64;102002.72;5010458;28;20042;-67
2021/06/04 08:34:06;;;;;;;4.80;1.60;;;;;;;21.95;39.43;101992.84;5005785;28;20085;-68
2021/06/04 08:36:35;;;;;;;2.13;1.08;;;;;;;21.92;39.35;102002.03;5010016;28;20033;-67
2021/06/04 08:39:09;;;;;;;3.67;1.08;;;;;;;21.91;39.16;102000.38;5006315;28;20037;-67
2021/06/04 08:42:21;;;;;;;4.35;1.38;;;;;;;21.87;39.46;101992.94;5006161;28;20109;-67
2021/06/04 08:45:02;;;;;;;2.80;0.98;;;;;;;21.88;39.65;102006.09;5004307;28;20048;-67
2021/06/04 08:47:31;;;;;;;3.00;1.00;;;;;;;21.94;39.37;102009.91;5002012;28;20065;-67
2021/06/04 08:50:05;;;;;;;3.40;0.95;;;;;;;21.91;39.17;102011.06;5004505;28;20060;-67
2021/06/04 08:52:39;;;;;;;4.90;1.17;;;;;;;21.93;39.17;102003.69;5007991;28;20144;-67
2021/06/04 08:55:23;;;;;;;3.85;0.88;;;;;;;21.92;38.68;102004.72;5008876;28;20045;-68
2021/06/04 08:57:53;;;;;;;3.38;0.80;;;;;;;21.94;38.88;102010.72;5009247;28;20030;-68
2021/06/04 09:00:27;;;;;;;2.65;0.90;;;;;;;21.94;39.06;102010.72;5009970;28;20100;-67
2021/06/04 09:03:06;;;;;;;2.20;0.77;;;;;;;21.94;39.55;102004.56;5010178;28;20040;-67
2021/06/04 09:05:46;;;;;;;4.38;0.93;;;;;;;21.96;39.20;102022.06;5005947;28;20504;-67
2021/06/04 09:08:17;;;;;;;5.78;0.95;;;;;;;22.00;39.34;102014.50;5001055;28;20466;-67
2021/06/04 09:10:55;;;;;;;2.00;0.80;;;;;;;22.00;39.46;102015.31;5008336;28;20080;-67
2021/06/04 09:13:26;;;;;;;2.58;0.80;;;;;;;22.01;39.08;102016.97;4997918;28;20124;-68
2021/06/04 09:15:58;;;;;;;5.45;1.10;;;;;;;22.00;39.01;102019.84;5003007;28;20026;-68
2021/06/04 09:18:56;;;;;;;2.42;0.77;;;;;;;21.94;38.97;102016.06;4989810;28;20038;-67
2021/06/04 09:21:26;;;;;;;3.28;0.80;;;;;;;21.94;38.92;102015.25;4985913;28;20070;-67
2021/06/04 09:23:52;;;;;;;3.03;0.82;;;;;;;21.93;38.83;102013.56;5002843;28;20034;-68
2021/06/04 09:26:21;;;;;;;1.60;0.70;;;;;;;21.90;38.57;102019.28;4988240;28;20022;-68
2021/06/04 09:29:12;;;;;;;2.60;1.15;;;;;;;21.84;38.82;102023.50;4981015;28;20034;-67
2021/06/04 09:31:42;;;;;;;2.80;0.80;;;;;;;21.88;38.49;102018.63;4997690;28;20653;-67
2021/06/04 09:34:24;;;;;;;2.30;0.70;;;;;;;21.85;38.75;102022.50;4997550;28;20038;-67
2021/06/04 09:37:00;;;;;;;2.65;1.10;;;;;;;21.86;39.01;102018.81;4991720;28;20033;-67
2021/06/04 09:39:32;;;;;;;3.30;0.70;;;;;;;21.87;38.56;102015.13;4992235;28;21032;-68
2021/06/04 09:42:18;;;;;;;2.17;0.80;;;;;;;21.89;38.58;102029.13;4991344;28;20559;-68
2021/06/04 09:44:52;;;;;;;2.55;0.95;;;;;;;21.88;38.63;102019.47;5003327;28;20084;-67
2021/06/04 09:47:39;;;;;;;3.13;0.80;;;;;;;21.87;38.82;102017.81;4996438;28;20032;-67
2021/06/04 09:50:20;;;;;;;2.78;0.77;;;;;;;21.87;38.87;102016.97;4995377;28;20038;-67
2021/06/04 09:52:59;;;;;;;2.67;0.77;;;;;;;21.91;38.84;102015.59;5006647;28;20038;-68
2021/06/04 09:55:29;;;;;;;3.78;0.80;;;;;;;21.89;38.88;102007.75;5008758;28;20034;-67
2021/06/04 09:58:13;;;;;;;2.60;0.82;;;;;;;21.85;38.64;102009.16;4991150;28;20489;-67
2021/06/04 10:00:40;;;;;;;3.15;0.60;;;;;;;21.87;38.88;102011.63;5002815;28;20034;-67
2021/06/04 10:03:21;;;;;;;3.92;0.80;;;;;;;21.88;38.42;102005.28;4989481;28;20038;-67
2021/06/04 10:05:48;;;;;;;4.88;0.80;;;;;;;21.88;38.84;102003.44;5007622;28;20358;-67
2021/06/04 10:08:29;;;;;;;5.80;1.17;;;;;;;21.86;38.37;102005.47;4997149;28;20085;-68
2021/06/04 10:11:02;;;;;;;3.50;0.80;;;;;;;21.84;38.37;101999.47;4994927;28;20108;-68
2021/06/04 10:13:36;;;;;;;2.35;1.10;;;;;;;21.85;38.47;102005.66;5008885;28;20128;-67
2021/06/04 10:16:04;;;;;;;2.78;1.00;;;;;;;21.82;37.79;101999.66;4996505;28;20072;-68
2021/06/04 10:18:36;;;;;;;2.55;0.80;;;;;;;21.80;37.99;102001.69;4998345;28;20563;-67
2021/06/04 10:21:18;;;;;;;2.88;0.80;;;;;;;21.79;37.38;102001.88;4993340;28;20156;-67
2021/06/04 10:23:47;;;;;;;2.25;0.70;;;;;;;21.80;37.47;102003.53;4990829;28;20062;-67
2021/06/04 10:26:28;;;;;;;3.78;0.75;;;;;;;21.77;37.34;101998.53;5005877;28;20021;-68
2021/06/04 10:28:57;;;;;;;2.42;0.73;;;;;;;21.75;37.20;102009.41;4996561;28;20038;-67
2021/06/04 10:31:37;;;;;;;3.10;0.90;;;;;;;21.70;37.30;102006.44;5001262;28;20040;-67
2021/06/04 10:34:14;;;;;;;3.47;0.82;;;;;;;21.71;37.03;101993.94;5002380;28;20033;-67
2021/06/04 10:36:45;;;;;;;1.80;0.80;;;;;;;21.69;36.86;102001.28;4996624;28;20044;-67
2021/06/04 10:39:18;;;;;;;3.70;0.90;;;;;;;21.68;36.96;102004.97;5007550;28;20040;-67
2021/06/04 10:41:56;;;;;;;6.28;1.25;;;;;;;21.68;37.14;101994.28;4972663;28;20106;-67
2021/06/04 10:44:40;;;;;;;3.10;0.80;;;;;;;21.67;37.24;101990.78;5000094;28;20535;-66
2021/06/04 10:47:18;;;;;;;2.45;1.00;;;;;;;21.69;37.13;101987.94;4993746;28;20065;-66
2021/06/04 10:50:02;;;;;;;4.22;0.98;;;;;;;21.71;37.05;101996.59;4995145;28;20038;-66
2021/06/04 10:52:50;;;;;;;2.83;0.70;;;;;;;21.70;37.33;101987.75;5004358;28;20040;-67
2021/06/04 10:55:29;;;;;;;2.22;0.82;;;;;;;21.72;37.34;101985.72;5007546;28;20032;-67
2021/06/04 10:58:11;;;;;;;3.10;0.82;;;;;;;21.75;37.53;101984.53;5008088;28;20172;-66
2021/06/04 11:00:46;;;;;;;3.05;0.68;;;;;;;21.75;37.28;101988.03;5006364;28;20034;-67
2021/06/04 11:03:18;;;;;;;4.57;0.68;;;;;;;21.76;37.65;101989.69;4998213;28;20026;-67
2021/06/04 11:05:56;;;;;;;1.58;0.60;;;;;;;21.78;37.54;102000.22;5002225;28;20386;-66
2021/06/04 11:08:43;;;;;;;2.95;1.02;;;;;;;21.78;37.58;101984.19;4989556;28;20036;-67
2021/06/04 11:11:30;;;;;;;3.15;0.85;;;;;;;21.80;37.69;101992.84;4991545;28;20033;-66
2021/06/04 11:14:24;;;;;;;2.70;1.00;;;;;;;21.83;37.63;102003.16;5004499;28;20125;-67
2021/06/04 11:17:12;;;;;;;2.95;0.75;;;;;;;21.82;37.56;101993.50;4997170;28;20085;-67
2021/06/04 11:19:43;;;;;;;2.90;0.60;;;;;;;21.88;38.00;101995.41;4987312;28;20159;-67
2021/06/04 11:22:16;;;;;;;3.65;1.60;;;;;;;21.88;37.80;101989.25;4971532;28;20038;-67
2021/06/04 11:25:02;;;;;;;2.83;0.80;;;;;;;21.88;38.07;101997.25;4981668;28;20022;-66
2021/06/04 11:27:35;;;;;;;2.08;1.05;;;;;;;21.89;38.11;101997.06;4971912;28;20106;-67
2021/06/04 11:30:06;;;;;;;2.30;0.82;;;;;;;21.91;38.13;101995.03;4981715;28;20081;-67
2021/06/04 11:32:38;;;;;;;2.88;0.80;;;;;;;21.91;38.29;101996.88;4972493;28;20033;-67
2021/06/04 11:35:10;;;;;;;2.33;0.68;;;;;;;21.92;38.38;101995.88;4988681;28;20030;-67
2021/06/04 11:37:57;;;;;;;3.30;0.80;;;;;;;21.88;38.27;101995.41;4976234;28;20069;-68
2021/06/04 11:40:30;;;;;;;2.17;0.70;;;;;;;21.88;38.30;101999.94;4979433;28;20094;-67
2021/06/04 11:43:05;;;;;;;2.15;0.73;;;;;;;21.86;37.86;101993.94;4979042;28;20121;-67
2021/06/04 11:45:32;;;;;;;3.13;0.90;;;;;;;21.86;38.13;101993.94;4980048;28;20108;-67